Time;durP1;ratioP1;P1;durP2;ratioP2;P2;SDS_P1;SDS_P2;PMS_P1;PMS_P2;Temp;Humidity;BMP_temperature;BMP_pressure;BME280_temperature;BME280_humidity;BME280_pressure;Samples;Min_cycle;Max_cycle;Signal;HPM_P1;HPM_P2
2022/03/24 00:04:55;;;;;;;27.07;13.07;;;8.40;92.90;;;;;;6751211;88;20205;-78
2022/03/24 00:14:56;;;;;;;30.62;13.70;;;8.60;94.60;;;;;;6746244;88;20638;-77
2022/03/24 00:24:57;;;;;;;25.67;13.02;;;8.50;95.60;;;;;;6747329;88;20205;-78
2022/03/24 00:34:57;;;;;;;22.27;12.37;;;8.40;97.10;;;;;;6754252;88;20319;-78
2022/03/24 00:44:58;;;;;;;26.48;12.60;;;8.20;98.50;;;;;;6745755;88;20250;-77
2022/03/24 00:54:58;;;;;;;25.98;13.07;;;8.30;99.60;;;;;;6746140;88;20200;-78
2022/03/24 01:05:01;;;;;;;29.45;13.70;;;8.00;99.90;;;;;;6747784;88;20237;-77
2022/03/24 01:15:04;;;;;;;27.45;13.52;;;7.90;99.90;;;;;;6745879;88;20291;-77
2022/03/24 01:25:08;;;;;;;27.30;12.90;;;8.00;99.90;;;;;;6745425;88;20289;-77
2022/03/24 01:35:09;;;;;;;27.90;12.93;;;7.60;99.90;;;;;;6744659;88;20172;-78
2022/03/24 01:45:10;;;;;;;27.43;13.00;;;7.50;99.90;;;;;;6745084;88;20229;-77
2022/03/24 01:55:13;;;;;;;26.33;13.10;;;7.60;99.90;;;;;;6740875;88;20520;-77
2022/03/24 02:05:14;;;;;;;25.12;12.65;;;7.50;99.90;;;;;;6744003;88;20334;-78
2022/03/24 02:15:15;;;;;;;26.92;12.77;;;7.40;99.90;;;;;;6742930;88;20232;-77
2022/03/24 02:25:16;;;;;;;30.65;13.13;;;7.30;99.90;;;;;;6744027;88;20215;-77
2022/03/24 02:35:16;;;;;;;27.70;13.38;;;7.00;99.90;;;;;;6744415;88;20189;-78
2022/03/24 02:45:17;;;;;;;29.92;12.70;;;7.00;99.90;;;;;;6743343;88;20404;-77
2022/03/24 02:55:18;;;;;;;25.58;12.90;;;6.70;99.90;;;;;;6743033;88;20193;-77
2022/03/24 03:05:19;;;;;;;29.60;13.00;;;6.60;99.90;;;;;;6748574;88;20239;-77
2022/03/24 03:15:19;;;;;;;26.40;12.32;;;6.60;99.90;;;;;;6746577;88;20184;-77
2022/03/24 03:25:47;;;;;;;27.15;12.63;;;6.60;99.90;;;;;;6752754;88;20190;-77
2022/03/24 03:36:33;;;;;;;24.00;12.15;;;6.50;99.90;;;;;;6694711;89;20219;-78
2022/03/24 03:46:36;;;;;;;25.17;12.52;;;6.30;99.90;;;;;;6690058;89;20235;-77
2022/03/24 03:56:37;;;;;;;27.33;13.18;;;6.10;99.90;;;;;;6689447;89;20300;-77
2022/03/24 04:06:39;;;;;;;25.52;12.60;;;6.00;99.90;;;;;;6738402;88;20201;-77
2022/03/24 04:16:39;;;;;;;27.85;13.13;;;5.90;99.90;;;;;;6761063;88;20185;-76
2022/03/24 04:26:40;;;;;;;27.80;13.13;;;6.00;99.90;;;;;;6761201;88;20729;-76
2022/03/24 04:36:40;;;;;;;28.12;12.98;;;5.90;99.90;;;;;;6760807;88;20502;-77
2022/03/24 04:46:41;;;;;;;23.65;12.45;;;5.70;99.90;;;;;;6762755;88;20193;-77
2022/03/24 04:56:42;;;;;;;30.47;13.03;;;5.80;99.90;;;;;;6762219;88;20178;-76
2022/03/24 05:06:42;;;;;;;25.33;12.60;;;5.70;99.90;;;;;;6761682;88;20530;-77
2022/03/24 05:16:43;;;;;;;27.73;13.18;;;5.60;99.90;;;;;;6760437;88;20499;-77
2022/03/24 05:26:43;;;;;;;30.42;14.05;;;5.40;99.90;;;;;;6760505;88;20192;-76
2022/03/24 05:36:44;;;;;;;28.83;13.45;;;5.60;99.90;;;;;;6760776;88;20220;-76
2022/03/24 05:46:46;;;;;;;24.77;12.35;;;5.40;99.90;;;;;;6758066;88;20215;-76
2022/03/24 05:56:48;;;;;;;23.55;12.93;;;5.30;99.90;;;;;;6758955;88;20205;-77
2022/03/24 06:06:56;;;;;;;30.45;13.95;;;5.20;99.90;;;;;;6748233;88;20181;-76
2022/03/24 06:16:57;;;;;;;27.37;12.80;;;5.40;99.90;;;;;;6748113;88;20178;-77
2022/03/24 06:26:58;;;;;;;30.27;14.15;;;5.20;99.90;;;;;;6741793;88;20197;-77
2022/03/24 06:36:58;;;;;;;30.65;13.65;;;5.50;99.90;;;;;;6749381;88;20640;-77
2022/03/24 06:46:59;;;;;;;32.38;14.40;;;5.80;99.90;;;;;;6743843;88;20185;-76
2022/03/24 06:56:59;;;;;;;30.85;14.87;;;6.10;99.90;;;;;;6734644;88;20200;-77
2022/03/24 07:07:00;;;;;;;30.77;14.30;;;6.50;99.90;;;;;;6726642;88;20331;-76
2022/03/24 07:17:00;;;;;;;29.13;15.23;;;6.80;99.90;;;;;;6736626;88;20200;-77
2022/03/24 07:27:02;;;;;;;30.70;15.05;;;7.40;99.90;;;;;;6738242;88;21013;-77
2022/03/24 07:37:04;;;;;;;36.00;15.73;;;8.00;99.90;;;;;;6744515;88;20203;-77
2022/03/24 07:47:05;;;;;;;32.03;15.57;;;8.50;99.90;;;;;;6709820;88;20215;-76
2022/03/24 07:57:05;;;;;;;28.98;15.30;;;9.00;99.90;;;;;;6734327;88;20222;-77
2022/03/24 08:07:06;;;;;;;30.92;15.10;;;9.60;99.90;;;;;;6738350;88;20242;-76
2022/03/24 08:17:07;;;;;;;29.23;15.35;;;10.10;99.90;;;;;;6738558;88;20196;-77
2022/03/24 08:27:07;;;;;;;27.98;15.57;;;10.80;99.90;;;;;;6736321;88;20201;-77
2022/03/24 08:37:08;;;;;;;35.40;15.87;;;11.80;99.90;;;;;;6737884;88;20262;-77
2022/03/24 08:47:09;;;;;;;32.30;16.25;;;12.70;99.90;;;;;;6744799;88;21068;-77
2022/03/24 08:57:09;;;;;;;31.73;17.05;;;13.90;98.40;;;;;;6742584;88;20215;-77
2022/03/24 09:07:10;;;;;;;35.15;17.83;;;14.70;95.60;;;;;;6738796;88;20315;-78
2022/03/24 09:17:10;;;;;;;33.65;18.48;;;15.30;93.80;;;;;;6744322;88;20213;-77
2022/03/24 09:37:17;;;;;;;51.25;24.02;;;16.60;85.70;;;;;;6741340;88;20228;-77
2022/03/24 09:47:18;;;;;;;46.63;26.95;;;17.80;84.30;;;;;;6741086;88;20751;-78
2022/03/24 09:57:20;;;;;;;50.17;26.05;;;18.60;79.40;;;;;;6741520;88;20267;-78
2022/03/24 10:07:25;;;;;;;41.95;24.30;;;19.00;74.80;;;;;;6681249;88;20206;-78
2022/03/24 10:17:26;;;;;;;40.08;23.85;;;19.40;71.50;;;;;;6669711;88;20737;-78
2022/03/24 10:27:28;;;;;;;40.72;23.73;;;20.40;69.50;;;;;;6666524;88;20397;-77
2022/03/24 10:37:29;;;;;;;42.83;25.83;;;20.60;67.50;;;;;;6665707;89;20267;-77
2022/03/24 10:47:48;;;;;;;46.60;26.58;;;21.70;65.30;;;;;;6668192;88;20936;-78
2022/03/24 10:57:49;;;;;;;39.42;24.98;;;22.40;62.50;;;;;;6669794;88;20206;-78
2022/03/24 11:07:52;;;;;;;36.83;24.55;;;22.40;60.40;;;;;;6669298;89;20250;-78
2022/03/24 11:17:52;;;;;;;40.88;26.23;;;22.70;58.90;;;;;;6669451;89;20810;-77
2022/03/24 11:27:54;;;;;;;46.78;26.55;;;23.10;57.20;;;;;;6673381;89;20219;-77
2022/03/24 11:37:55;;;;;;;45.70;28.73;;;23.60;57.00;;;;;;6668372;88;20214;-78
2022/03/24 11:48:05;;;;;;;48.87;28.73;;;24.20;56.00;;;;;;6670177;89;20196;-79
2022/03/24 11:58:06;;;;;;;42.92;26.23;;;24.20;55.80;;;;;;6671144;88;20215;-79
2022/03/24 12:08:08;;;;;;;45.83;26.27;;;24.20;54.30;;;;;;6671176;88;20310;-78
2022/03/24 12:18:18;;;;;;;39.97;22.23;;;24.10;54.50;;;;;;6670911;89;20648;-78
2022/03/24 12:28:24;;;;;;;36.60;22.48;;;23.90;53.10;;;;;;6670554;88;20229;-78
2022/03/24 12:38:34;;;;;;;41.08;24.00;;;24.10;52.20;;;;;;6670931;88;20184;-79
2022/03/24 12:48:39;;;;;;;45.72;26.92;;;24.50;51.80;;;;;;6678359;88;20235;-78
2022/03/24 12:58:49;;;;;;;44.83;27.00;;;24.70;52.10;;;;;;6671198;89;20238;-80
2022/03/24 13:09:19;;;;;;;43.80;26.58;;;23.60;51.10;;;;;;6672999;88;20213;-77
2022/03/24 13:19:23;;;;;;;43.63;26.08;;;24.50;52.60;;;;;;6673473;89;20204;-78
2022/03/24 13:29:38;;;;;;;40.28;24.80;;;24.50;51.20;;;;;;6672070;88;20237;-77
2022/03/24 13:39:38;;;;;;;43.75;21.33;;;24.80;50.90;;;;;;6670886;89;20618;-78
2022/03/24 13:49:40;;;;;;;36.75;20.60;;;23.60;49.90;;;;;;6668841;89;20279;-79
2022/03/24 13:59:41;;;;;;;38.55;21.90;;;23.40;50.30;;;;;;6672710;88;20279;-78
2022/03/24 14:09:53;;;;;;;37.85;22.10;;;24.50;49.90;;;;;;6667795;88;20199;-78
2022/03/24 14:19:55;;;;;;;35.42;21.12;;;24.70;49.10;;;;;;6671920;88;20265;-78
2022/03/24 14:30:08;;;;;;;31.20;19.40;;;25.00;49.30;;;;;;6671998;88;20316;-78
2022/03/24 14:40:11;;;;;;;32.10;15.68;;;25.10;49.20;;;;;;6671154;88;20210;-79
2022/03/24 14:50:12;;;;;;;30.80;15.20;;;24.20;48.00;;;;;;6672145;88;20265;-78
2022/03/24 15:00:15;;;;;;;32.78;15.40;;;22.70;49.30;;;;;;6675496;88;20351;-78
2022/03/24 15:10:16;;;;;;;28.97;13.43;;;22.40;49.60;;;;;;6673249;89;20188;-79
2022/03/24 15:20:17;;;;;;;20.95;11.05;;;22.40;50.00;;;;;;6677253;88;20193;-79
2022/03/24 15:30:18;;;;;;;24.87;10.85;;;22.40;49.60;;;;;;6683156;77;20221;-79
2022/03/24 15:40:18;;;;;;;23.13;10.33;;;22.70;49.00;;;;;;6731261;88;20181;-78
2022/03/24 15:50:19;;;;;;;29.40;10.98;;;21.80;48.40;;;;;;6736431;88;20501;-78
2022/03/24 16:00:21;;;;;;;23.75;11.18;;;21.00;49.60;;;;;;6727551;88;20325;-78
2022/03/24 16:10:22;;;;;;;23.75;11.43;;;20.60;50.00;;;;;;6723544;88;20233;-78
2022/03/24 16:20:23;;;;;;;24.12;11.95;;;20.30;50.80;;;;;;6724645;88;20209;-78
2022/03/24 16:30:24;;;;;;;27.67;14.23;;;20.30;50.80;;;;;;6734718;88;20295;-79
2022/03/24 16:40:25;;;;;;;24.10;12.90;;;20.60;51.60;;;;;;6721695;88;20185;-77
2022/03/24 16:50:26;;;;;;;27.30;14.13;;;20.40;51.40;;;;;;6722689;88;20543;-77
2022/03/24 17:00:27;;;;;;;27.70;13.90;;;20.00;51.70;;;;;;6721693;88;20691;-77
2022/03/24 17:10:28;;;;;;;29.17;14.07;;;19.60;51.30;;;;;;6728111;88;20205;-77
2022/03/24 17:20:28;;;;;;;27.40;14.57;;;18.90;52.30;;;;;;6733943;88;20231;-78
2022/03/24 17:30:30;;;;;;;28.92;14.65;;;18.50;52.80;;;;;;6731018;88;20253;-78
2022/03/24 17:40:30;;;;;;;27.48;15.35;;;18.10;53.30;;;;;;6732227;88;20184;-78
2022/03/24 17:50:31;;;;;;;28.80;14.82;;;17.50;54.00;;;;;;6726340;88;20233;-78
2022/03/24 18:00:32;;;;;;;29.63;16.15;;;17.00;54.70;;;;;;6722121;88;20433;-78
2022/03/24 18:10:33;;;;;;;30.60;16.27;;;16.60;55.90;;;;;;6726901;88;20193;-77
2022/03/24 18:20:33;;;;;;;28.15;15.00;;;16.30;57.20;;;;;;6726815;88;20189;-77
2022/03/24 18:30:39;;;;;;;32.65;15.85;;;15.70;57.90;;;;;;6728795;88;20196;-78
2022/03/24 18:40:39;;;;;;;31.05;16.67;;;15.30;59.60;;;;;;6735276;88;20192;-81
2022/03/24 18:50:40;;;;;;;38.05;16.50;;;14.90;60.90;;;;;;6735387;88;20166;-79
2022/03/24 19:00:41;;;;;;;33.50;17.15;;;14.50;61.90;;;;;;6735559;88;20993;-79
2022/03/24 19:10:42;;;;;;;36.63;18.40;;;14.20;62.30;;;;;;6728241;88;20255;-78
2022/03/24 19:20:42;;;;;;;37.28;19.33;;;14.00;62.90;;;;;;6730985;88;20599;-78
2022/03/24 19:30:43;;;;;;;35.65;19.37;;;13.80;62.80;;;;;;6735159;88;20290;-79
2022/03/24 19:40:43;;;;;;;35.80;18.73;;;13.80;63.50;;;;;;6729278;88;20198;-78
2022/03/24 19:50:44;;;;;;;40.97;21.40;;;13.70;62.80;;;;;;6733629;88;20178;-78
2022/03/24 20:00:45;;;;;;;36.53;20.87;;;13.70;63.40;;;;;;6731789;88;20193;-78
2022/03/24 20:10:46;;;;;;;41.10;20.37;;;13.50;64.60;;;;;;6727090;88;20594;-78
2022/03/24 20:20:46;;;;;;;37.05;20.27;;;13.30;65.70;;;;;;6716383;88;20547;-78
2022/03/24 20:30:47;;;;;;;37.00;19.45;;;13.00;67.60;;;;;;6730810;88;20189;-78
2022/03/24 20:40:48;;;;;;;37.43;18.30;;;12.80;68.30;;;;;;6735148;88;20273;-78
2022/03/24 20:50:48;;;;;;;37.85;18.73;;;12.40;69.60;;;;;;6718347;88;20503;-78
2022/03/24 21:00:49;;;;;;;47.47;21.95;;;12.20;68.60;;;;;;6733710;88;21070;-77
2022/03/24 21:10:49;;;;;;;41.30;19.58;;;12.10;71.20;;;;;;6730677;88;20197;-78
2022/03/24 21:20:50;;;;;;;41.70;20.33;;;11.70;71.10;;;;;;6733317;88;20197;-78
2022/03/24 21:30:51;;;;;;;42.40;20.25;;;11.50;73.10;;;;;;6715004;88;20182;-79
2022/03/24 21:40:52;;;;;;;34.80;16.90;;;11.20;74.00;;;;;;6739893;88;20204;-78
2022/03/24 21:50:52;;;;;;;35.22;17.10;;;11.20;74.80;;;;;;6734863;88;20279;-77
2022/03/24 22:00:53;;;;;;;35.60;17.75;;;11.20;75.10;;;;;;6736587;88;20233;-78
2022/03/24 22:10:53;;;;;;;36.33;17.90;;;10.60;75.10;;;;;;6726854;88;20347;-77
2022/03/24 22:20:55;;;;;;;42.05;18.92;;;10.40;75.40;;;;;;6727872;88;20263;-78
2022/03/24 22:30:56;;;;;;;39.17;17.33;;;10.00;76.40;;;;;;6736967;88;20214;-78
2022/03/24 22:40:57;;;;;;;43.22;17.98;;;9.70;77.70;;;;;;6724397;88;20274;-78
2022/03/24 22:50:58;;;;;;;36.47;17.45;;;9.50;78.30;;;;;;6727528;88;20181;-78
2022/03/24 23:00:58;;;;;;;40.33;18.33;;;9.50;78.30;;;;;;6705263;88;20744;-78
2022/03/24 23:11:00;;;;;;;36.72;17.48;;;9.30;79.70;;;;;;6734810;88;20221;-78
2022/03/24 23:21:01;;;;;;;35.72;17.17;;;9.30;80.00;;;;;;6733406;88;20182;-78
2022/03/24 23:31:02;;;;;;;34.70;16.25;;;9.10;81.50;;;;;;6728898;87;20204;-77
2022/03/24 23:41:03;;;;;;;35.08;16.92;;;8.90;81.80;;;;;;6738869;88;20618;-77
2022/03/24 23:51:03;;;;;;;37.70;17.33;;;8.60;83.70;;;;;;6665283;88;20254;-77
